Time;durP1;ratioP1;P1;durP2;ratioP2;P2;SDS_P1;SDS_P2;PMS_P1;PMS_P2;Temp;Humidity;BMP_temperature;BMP_pressure;BME280_temperature;BME280_humidity;BME280_pressure;Samples;Min_cycle;Max_cycle;Signal;HPM_P1;HPM_P2
2022/06/17 00:01:40;;;;;;;9.82;7.72;;;;;;;18.59;60.55;102095.31;3564988;40;20053;-63
2022/06/17 00:04:06;;;;;;;11.05;7.53;;;;;;;18.57;61.09;102094.53;3566521;40;20049;-63
2022/06/17 00:06:42;;;;;;;9.40;7.18;;;;;;;18.44;60.74;102072.81;3570180;40;20414;-64
2022/06/17 00:09:10;;;;;;;10.48;7.18;;;;;;;18.59;60.34;102095.31;3569683;40;20069;-63
2022/06/17 00:11:38;;;;;;;10.48;7.35;;;;;;;18.63;60.55;102102.25;3567586;40;20053;-63
2022/06/17 00:14:13;;;;;;;9.38;7.60;;;;;;;18.67;61.28;102092.84;3567719;40;20057;-63
2022/06/17 00:16:40;;;;;;;9.35;7.65;;;;;;;18.64;61.44;102103.97;3566073;40;20067;-63
2022/06/17 00:19:06;;;;;;;9.65;7.35;;;;;;;18.59;60.75;102095.31;3568310;40;20053;-63
2022/06/17 00:21:38;;;;;;;9.60;7.45;;;;;;;18.56;61.36;102098.25;3569017;40;20122;-63
2022/06/17 00:24:25;;;;;;;10.85;7.78;;;;;;;18.58;61.07;102109.88;3568929;40;20110;-63
2022/06/17 00:26:54;;;;;;;12.60;7.68;;;;;;;18.20;61.49;102044.69;3568196;40;20048;-63
2022/06/17 00:29:24;;;;;;;8.13;7.15;;;;;;;18.49;61.14;102110.56;3569244;40;20061;-64
2022/06/17 00:31:49;;;;;;;8.43;7.07;;;;;;;18.27;62.07;102076.81;3565175;40;20265;-64
2022/06/17 00:34:16;;;;;;;8.98;7.40;;;;;;;18.39;62.24;102099.50;3569009;40;20052;-63
2022/06/17 00:36:43;;;;;;;8.93;7.00;;;;;;;18.35;61.99;102103.44;3564680;40;20060;-64
2022/06/17 00:39:20;;;;;;;10.07;7.97;;;;;;;18.28;62.25;102110.34;3566375;40;20088;-64
2022/06/17 00:41:52;;;;;;;11.63;8.10;;;;;;;18.23;62.54;102113.38;3563825;40;20057;-64
2022/06/17 00:44:58;;;;;;;8.60;7.55;;;;;;;18.21;62.47;102123.53;3564133;40;20312;-63
2022/06/17 00:47:33;;;;;;;11.07;7.68;;;;;;;18.22;62.74;102127.13;3564801;40;20123;-63
2022/06/17 00:50:28;;;;;;;10.43;7.50;;;;;;;18.20;63.67;102112.75;3566726;40;20500;-64
2022/06/17 00:53:17;;;;;;;10.85;7.45;;;;;;;17.46;64.92;101994.81;3556268;40;20058;-64
2022/06/17 00:56:00;;;;;;;12.55;8.05;;;;;;;18.05;66.00;102091.13;3567357;40;20053;-63
2022/06/17 00:58:55;;;;;;;13.35;8.43;;;;;;;18.10;66.17;102105.25;3568635;40;20049;-63
2022/06/17 01:01:23;;;;;;;9.80;8.02;;;;;;;17.75;65.21;102058.81;3567980;40;20127;-64
2022/06/17 01:03:55;;;;;;;10.15;8.05;;;;;;;18.01;65.71;102111.34;3567691;40;20173;-64
2022/06/17 01:06:31;;;;;;;9.60;7.88;;;;;;;17.98;66.88;102108.00;3569070;40;20300;-63
2022/06/17 01:12:03;;;;;;;12.48;7.55;;;;;;;17.89;66.54;102089.63;3568977;40;20120;-63
2022/06/17 01:14:29;;;;;;;13.50;8.27;;;;;;;17.95;66.25;102100.06;3572308;40;20045;-63
2022/06/17 01:16:58;;;;;;;9.90;7.30;;;;;;;17.90;65.94;102097.69;3570708;40;20075;-63
2022/06/17 01:19:43;;;;;;;10.43;7.93;;;;;;;17.82;66.22;102090.09;3572898;40;20067;-63
2022/06/17 01:22:27;;;;;;;11.85;7.20;;;;;;;17.87;65.64;102103.34;3569931;40;20060;-64
2022/06/17 01:25:01;;;;;;;10.65;7.35;;;;;;;17.88;64.82;102106.94;3572204;40;20043;-64
2022/06/17 01:27:31;;;;;;;;;;;;;;;17.84;65.10;102107.16;3569105;40;20052;-64
2022/06/17 01:29:57;;;;;;;10.45;7.07;;;;;;;17.81;65.26;102099.22;3570718;40;20391;-64
2022/06/17 01:32:32;;;;;;;9.75;7.78;;;;;;;17.79;64.73;102090.31;3569415;40;20081;-63
2022/06/17 01:35:00;;;;;;;8.88;6.68;;;;;;;17.78;64.72;102099.44;3567887;40;20069;-63
2022/06/17 01:37:29;;;;;;;11.35;7.72;;;;;;;17.56;64.95;102067.44;3573667;40;20057;-64
2022/06/17 01:39:56;;;;;;;7.80;6.97;;;;;;;17.73;65.08;102101.59;3567235;40;20077;-63
2022/06/17 01:42:24;;;;;;;10.13;7.50;;;;;;;17.70;66.11;102101.81;3570986;40;20065;-64
2022/06/17 01:44:53;;;;;;;11.98;7.35;;;;;;;17.66;65.43;102094.84;3568164;40;20055;-64
2022/06/17 01:47:27;;;;;;;10.85;7.60;;;;;;;17.51;65.56;102085.06;3556633;40;20351;-64
2022/06/17 01:50:11;;;;;;;12.88;6.97;;;;;;;17.59;66.17;102107.13;3566445;40;20045;-63
2022/06/17 01:52:48;;;;;;;;;;;;;;;17.60;65.80;102101.59;3567163;40;20064;-64
2022/06/17 01:55:47;;;;;;;8.63;6.75;;;;;;;17.54;66.03;102115.63;3567411;40;19941;-63
2022/06/17 01:58:35;;;;;;;9.07;7.38;;;;;;;17.50;65.90;102102.34;3568738;40;20061;-64
2022/06/17 02:01:06;;;;;;;8.88;7.28;;;;;;;17.35;65.96;102080.72;3566397;40;20061;-63
2022/06/17 02:03:43;;;;;;;11.63;7.50;;;;;;;17.55;65.72;102109.22;3564937;40;20058;-63
2022/06/17 02:06:26;;;;;;;10.32;8.10;;;;;;;17.47;65.80;102098.00;3568636;40;20101;-63
2022/06/17 02:08:53;;;;;;;9.40;8.32;;;;;;;17.47;67.05;102110.72;3567511;40;20057;-63
2022/06/17 02:11:20;;;;;;;9.13;7.55;;;;;;;17.38;68.09;102102.25;3564993;40;20051;-64
2022/06/17 02:13:47;;;;;;;9.40;7.15;;;;;;;17.37;67.98;102111.38;3567251;40;20123;-63
2022/06/17 02:16:13;;;;;;;10.68;8.10;;;;;;;17.40;66.90;102105.72;3567923;40;20115;-63
2022/06/17 02:18:44;;;;;;;10.73;8.05;;;;;;;17.38;66.36;102114.97;3566381;40;20065;-64
2022/06/17 02:21:25;;;;;;;9.23;7.30;;;;;;;17.33;66.95;102098.97;3566772;40;20053;-63
2022/06/17 02:23:53;;;;;;;13.65;7.45;;;;;;;17.36;66.24;102104.19;3567156;40;20052;-65
2022/06/17 02:26:22;;;;;;;8.82;7.70;;;;;;;17.34;66.16;102106.13;3565788;40;20107;-63
2022/06/17 02:28:51;;;;;;;12.07;7.72;;;;;;;17.30;67.47;102099.19;3569797;40;20055;-63
2022/06/17 02:31:18;;;;;;;11.73;7.55;;;;;;;17.27;67.58;102099.41;3572046;40;20053;-63
2022/06/17 02:33:51;;;;;;;11.38;7.95;;;;;;;17.23;67.97;102103.31;3568398;40;20061;-63
2022/06/17 02:36:47;;;;;;;12.75;7.88;;;;;;;17.17;67.20;102088.31;3566356;40;20079;-63
2022/06/17 02:39:15;;;;;;;9.55;7.93;;;;;;;17.19;66.89;102090.94;3567389;40;20049;-63
2022/06/17 02:41:43;;;;;;;14.75;8.05;;;;;;;17.20;67.12;102098.09;3565436;40;20041;-64
2022/06/17 02:44:31;;;;;;;10.15;8.10;;;;;;;17.15;67.85;102100.25;3566717;40;20315;-63
2022/06/17 02:47:01;;;;;;;9.68;7.88;;;;;;;16.91;68.25;102070.22;3565428;40;20060;-63
2022/06/17 02:49:36;;;;;;;11.10;8.20;;;;;;;17.10;69.04;102099.72;3566458;40;20049;-63
2022/06/17 02:52:13;;;;;;;11.75;8.15;;;;;;;17.10;68.22;102097.00;3564629;40;20166;-63
2022/06/17 02:54:48;;;;;;;10.45;8.20;;;;;;;17.10;69.19;102100.59;3568059;40;20067;-64
2022/06/17 02:57:25;;;;;;;9.05;7.78;;;;;;;17.10;68.27;102097.00;3567823;40;20060;-63
2022/06/17 03:00:17;;;;;;;9.65;7.90;;;;;;;17.05;67.84;102094.59;3565773;40;20620;-63
2022/06/17 03:02:49;;;;;;;10.85;8.13;;;;;;;17.06;67.90;102095.44;3564600;40;20045;-63
2022/06/17 03:05:26;;;;;;;9.13;7.97;;;;;;;17.05;67.95;102104.59;3569090;40;20049;-63
2022/06/17 03:07:56;;;;;;;10.10;7.85;;;;;;;17.07;67.25;102094.50;3568275;40;20087;-63
2022/06/17 03:10:29;;;;;;;10.00;8.18;;;;;;;17.00;67.55;102082.28;3566651;40;20057;-63
2022/06/17 03:13:10;;;;;;;10.68;7.90;;;;;;;17.05;67.58;102093.72;3569321;40;20327;-63
2022/06/17 03:15:42;;;;;;;10.48;7.82;;;;;;;17.01;67.59;102103.06;3566097;40;20055;-63
2022/06/17 03:18:10;;;;;;;10.43;8.27;;;;;;;16.86;67.30;102081.41;3564555;40;20053;-63
2022/06/17 03:20:41;;;;;;;11.18;8.57;;;;;;;16.96;67.63;102102.50;3564793;40;20053;-63
2022/06/17 03:23:16;;;;;;;10.23;8.32;;;;;;;16.91;67.59;102100.09;3570314;40;20061;-63
2022/06/17 03:25:55;;;;;;;12.43;8.25;;;;;;;16.90;67.82;102095.63;3565291;40;20081;-63
2022/06/17 03:28:38;;;;;;;9.15;7.72;;;;;;;16.92;67.86;102107.28;3567408;40;20127;-64
2022/06/17 03:31:16;;;;;;;10.13;8.52;;;;;;;16.98;68.20;102111.41;3564669;40;20061;-64
2022/06/17 03:33:55;;;;;;;10.77;8.05;;;;;;;17.03;67.23;102111.97;3566018;40;20321;-66
2022/06/17 03:36:47;;;;;;;12.45;8.07;;;;;;;17.07;67.94;102114.38;3567514;40;20440;-66
2022/06/17 03:39:31;;;;;;;11.05;8.07;;;;;;;17.13;67.12;102129.41;3559392;40;20377;-65
2022/06/17 03:42:25;;;;;;;11.05;7.70;;;;;;;17.21;66.92;102132.44;3568776;40;20048;-66
2022/06/17 03:45:09;;;;;;;10.13;8.27;;;;;;;17.29;66.40;102140.94;3574443;40;20390;-66
2022/06/17 03:48:15;;;;;;;10.70;8.57;;;;;;;17.36;65.48;102135.94;3571874;40;20096;-65
2022/06/17 03:50:47;;;;;;;10.30;8.90;;;;;;;17.42;65.83;102140.09;3569202;40;20134;-66
2022/06/17 03:53:26;;;;;;;14.18;9.50;;;;;;;17.47;65.23;102135.19;3568630;40;20057;-65
2022/06/17 03:55:58;;;;;;;10.63;9.18;;;;;;;17.49;64.85;102135.97;3567140;40;20049;-65
2022/06/17 03:58:24;;;;;;;10.77;9.52;;;;;;;17.47;64.99;102125.19;3567460;40;20118;-65
2022/06/17 04:01:14;;;;;;;13.13;9.77;;;;;;;17.59;65.16;102135.19;3569095;40;20110;-66
2022/06/17 04:03:49;;;;;;;11.68;8.98;;;;;;;17.64;66.08;102130.31;3565959;40;20122;-66
2022/06/17 04:06:23;;;;;;;12.27;9.00;;;;;;;17.68;64.54;102120.09;3567840;40;20117;-66
2022/06/17 04:08:51;;;;;;;11.77;9.57;;;;;;;17.78;64.86;102131.22;3573164;40;20082;-65
2022/06/17 04:11:17;;;;;;;12.98;9.18;;;;;;;17.84;64.10;102128.06;3567726;40;20053;-66
2022/06/17 04:13:43;;;;;;;11.68;8.82;;;;;;;17.91;62.98;102131.19;3574810;40;20041;-65
2022/06/17 04:16:28;;;;;;;11.32;9.27;;;;;;;17.94;64.18;102131.84;3571863;40;20048;-66
2022/06/17 04:19:07;;;;;;;10.68;9.43;;;;;;;17.98;63.10;102127.03;3555450;40;20064;-66
2022/06/17 04:21:33;;;;;;;13.20;9.85;;;;;;;18.04;63.27;102126.59;3567538;40;20052;-67
2022/06/17 04:23:58;;;;;;;11.18;9.25;;;;;;;18.08;63.78;102118.13;3568007;40;20056;-66
2022/06/17 04:26:32;;;;;;;12.88;9.23;;;;;;;18.10;63.23;102110.69;3564699;40;20127;-66
2022/06/17 04:29:05;;;;;;;12.88;9.73;;;;;;;18.18;60.80;102115.59;3563864;40;20053;-66
2022/06/17 04:31:32;;;;;;;10.75;9.38;;;;;;;18.25;61.79;102108.72;3557475;40;20061;-66
2022/06/17 04:34:14;;;;;;;13.25;9.65;;;;;;;18.31;61.54;102108.25;3564756;40;20100;-65
2022/06/17 04:37:03;;;;;;;12.50;9.73;;;;;;;18.37;60.84;102109.66;3567563;40;20083;-66
2022/06/17 04:39:35;;;;;;;15.52;9.48;;;;;;;18.44;60.70;102107.34;3567673;40;20292;-66
2022/06/17 04:42:10;;;;;;;12.82;9.05;;;;;;;18.50;60.46;102109.59;3564505;40;20041;-66
2022/06/17 04:44:36;;;;;;;11.57;9.23;;;;;;;18.54;61.18;102103.81;3572085;40;20061;-66
2022/06/17 04:47:11;;;;;;;15.02;9.70;;;;;;;18.60;60.43;102105.19;3572767;40;20499;-66
2022/06/17 04:49:45;;;;;;;12.13;9.65;;;;;;;18.48;60.18;102071.59;3573761;40;20128;-66
2022/06/17 04:52:36;;;;;;;14.07;9.38;;;;;;;18.66;60.71;102085.69;3573547;40;20064;-66
2022/06/17 04:55:10;;;;;;;11.25;8.70;;;;;;;18.46;59.34;102046.34;3571492;40;20100;-66
2022/06/17 04:57:38;;;;;;;11.88;9.25;;;;;;;18.75;60.62;102090.47;3568168;40;20064;-66
2022/06/17 05:00:05;;;;;;;10.73;8.80;;;;;;;18.84;59.69;102088.00;3576573;40;20052;-66
2022/06/17 05:02:33;;;;;;;10.57;9.48;;;;;;;18.92;58.90;102080.97;3572290;40;20080;-66
2022/06/17 05:05:08;;;;;;;11.48;8.48;;;;;;;19.02;58.72;102082.00;3573780;40;20065;-66
2022/06/17 05:07:45;;;;;;;13.88;9.00;;;;;;;19.11;57.68;102085.88;3572900;40;20056;-66
2022/06/17 05:10:26;;;;;;;13.75;8.43;;;;;;;19.11;57.34;102085.00;3572965;40;20295;-66
2022/06/17 05:13:17;;;;;;;16.13;8.55;;;;;;;19.24;56.99;102092.09;3577523;40;20054;-66
2022/06/17 05:15:43;;;;;;;13.57;8.73;;;;;;;19.33;56.24;102089.66;3573226;40;20053;-66
2022/06/17 05:18:09;;;;;;;13.52;8.25;;;;;;;19.38;57.75;102091.03;3572614;40;20075;-66
2022/06/17 05:20:34;;;;;;;12.32;8.18;;;;;;;19.12;56.60;102044.00;3565925;40;20134;-66
2022/06/17 05:23:05;;;;;;;14.23;8.25;;;;;;;19.51;57.52;102096.38;3560892;40;20087;-66
2022/06/17 05:25:39;;;;;;;10.18;8.27;;;;;;;19.52;56.81;102098.09;3570981;40;20108;-66
2022/06/17 05:28:07;;;;;;;11.98;8.35;;;;;;;19.59;56.95;102095.75;3570965;40;20368;-66
2022/06/17 05:30:38;;;;;;;11.15;7.68;;;;;;;19.61;56.58;102097.38;3571698;40;20703;-66
2022/06/17 05:33:05;;;;;;;13.85;8.60;;;;;;;19.66;55.62;102097.91;3572139;40;20060;-66
2022/06/17 05:35:31;;;;;;;11.50;8.20;;;;;;;19.14;56.65;101992.94;3564727;40;20072;-66
2022/06/17 05:37:57;;;;;;;14.35;8.98;;;;;;;19.66;56.25;102078.81;3568573;40;20061;-66
2022/06/17 05:40:24;;;;;;;12.25;8.60;;;;;;;19.78;55.98;102084.25;3568333;40;20053;-66
2022/06/17 05:42:50;;;;;;;14.02;7.65;;;;;;;19.83;56.00;102077.44;3570478;40;20379;-66
2022/06/17 05:45:22;;;;;;;12.75;7.90;;;;;;;19.92;55.15;102076.72;3564637;40;20345;-65
2022/06/17 05:47:48;;;;;;;9.65;7.07;;;;;;;19.97;54.95;102084.50;3566356;40;20101;-65
2022/06/17 05:50:16;;;;;;;11.98;7.68;;;;;;;19.96;54.02;102077.31;3566516;40;20339;-66
2022/06/17 05:52:55;;;;;;;9.77;7.15;;;;;;;20.01;54.39;102075.06;3567459;40;20057;-65
2022/06/17 05:55:25;;;;;;;12.70;7.20;;;;;;;20.04;54.57;102072.06;3571199;40;20065;-66
2022/06/17 05:57:51;;;;;;;9.73;6.78;;;;;;;20.01;53.70;102068.75;3574788;40;20452;-66
2022/06/17 06:00:17;;;;;;;8.65;6.95;;;;;;;20.03;54.71;102064.91;3573155;40;20064;-64
2022/06/17 06:02:43;;;;;;;13.35;7.32;;;;;;;19.99;55.81;102038.84;3570757;40;20049;-64
2022/06/17 06:05:15;;;;;;;10.90;7.30;;;;;;;20.13;56.17;102060.41;3573842;40;20106;-64
2022/06/17 06:07:41;;;;;;;12.75;6.90;;;;;;;20.22;56.15;102066.13;3563844;40;20041;-64
2022/06/17 06:10:08;;;;;;;8.50;7.05;;;;;;;20.27;56.55;102058.41;3571952;40;20048;-65
2022/06/17 06:15:22;;;;;;;9.38;7.05;;;;;;;20.33;55.55;102060.59;3571434;40;20134;-64
2022/06/17 06:17:48;;;;;;;9.93;7.00;;;;;;;20.33;54.22;102046.94;3574558;40;20064;-65
2022/06/17 06:20:16;;;;;;;11.75;5.90;;;;;;;20.42;55.29;102051.66;3572237;40;20138;-65
2022/06/17 06:22:42;;;;;;;8.18;6.43;;;;;;;20.44;55.46;102049.66;3574029;40;20053;-65
2022/06/17 06:25:12;;;;;;;7.55;6.13;;;;;;;20.47;53.81;102048.53;3571856;40;20272;-64
2022/06/17 06:27:38;;;;;;;9.68;6.40;;;;;;;20.49;53.62;102058.34;3569720;40;20127;-65
2022/06/17 06:30:05;;;;;;;10.70;5.80;;;;;;;20.53;54.28;102054.38;3574562;40;20048;-64
2022/06/17 06:32:30;;;;;;;11.20;5.70;;;;;;;20.63;53.69;102065.41;3569081;40;20407;-65
2022/06/17 06:34:56;;;;;;;9.23;5.60;;;;;;;20.66;52.93;102073.34;3570787;40;20065;-64
2022/06/17 06:37:21;;;;;;;12.18;5.57;;;;;;;20.73;52.27;102068.22;3574933;40;20083;-65
2022/06/17 06:39:47;;;;;;;13.13;5.30;;;;;;;20.83;52.23;102080.94;3573626;40;20068;-65
2022/06/17 06:42:13;;;;;;;9.90;5.32;;;;;;;20.95;52.59;102086.38;3565657;40;20074;-65
2022/06/17 06:44:38;;;;;;;6.25;5.30;;;;;;;21.02;51.74;102080.25;3565003;40;20099;-65
2022/06/17 06:47:05;;;;;;;9.10;5.00;;;;;;;21.12;51.80;102077.56;3567415;40;20065;-65
2022/06/17 06:49:31;;;;;;;7.13;5.05;;;;;;;21.23;51.75;102080.25;3565203;40;20056;-65
2022/06/17 06:51:57;;;;;;;10.27;5.20;;;;;;;21.31;51.72;102077.72;3564240;40;20063;-65
2022/06/17 06:54:22;;;;;;;9.18;6.57;;;;;;;21.40;51.07;102077.94;3569300;40;20082;-65
2022/06/17 06:56:48;;;;;;;9.15;5.43;;;;;;;21.41;52.02;102057.78;3572015;40;20441;-65
2022/06/17 06:59:15;;;;;;;11.02;5.05;;;;;;;21.62;50.92;102079.66;3569686;40;20068;-65
2022/06/17 07:01:41;;;;;;;9.20;5.43;;;;;;;21.70;50.58;102083.44;3568426;40;20053;-65
2022/06/17 07:04:06;;;;;;;7.53;5.38;;;;;;;21.85;49.80;102078.47;3570237;40;20061;-65
2022/06/17 07:06:35;;;;;;;51.28;29.42;;;;;;;22.03;50.47;102095.97;3568972;40;20187;-65
2022/06/17 07:09:02;;;;;;;8.65;4.95;;;;;;;22.16;49.50;102090.25;3568285;40;20389;-65
2022/06/17 07:11:28;;;;;;;7.00;4.90;;;;;;;22.40;48.64;102095.38;3566375;40;20056;-65
2022/06/17 07:13:53;;;;;;;11.00;4.95;;;;;;;22.63;47.93;102081.41;3572234;40;20079;-65
2022/06/17 07:16:19;;;;;;;6.40;4.57;;;;;;;22.78;47.83;102079.13;3568032;40;20435;-64
2022/06/17 07:18:45;;;;;;;7.80;4.43;;;;;;;22.89;48.02;102074.34;3564308;40;20089;-65
2022/06/17 07:21:13;;;;;;;7.13;4.70;;;;;;;22.99;47.59;102070.75;3567499;40;20080;-65
2022/06/17 07:23:44;;;;;;;7.28;4.43;;;;;;;23.09;46.73;102071.63;3568643;40;20060;-65
2022/06/17 07:26:18;;;;;;;8.00;4.60;;;;;;;23.22;45.44;102079.56;3571734;40;20052;-64
2022/06/17 07:28:47;;;;;;;9.65;4.70;;;;;;;23.36;45.87;102079.09;3570029;40;20088;-64
2022/06/17 07:31:13;;;;;;;6.18;3.75;;;;;;;23.41;45.31;102074.03;3571346;40;20068;-65
2022/06/17 07:33:39;;;;;;;6.53;3.85;;;;;;;23.56;44.15;102074.41;3573042;40;20442;-64
2022/06/17 07:36:10;;;;;;;6.93;3.85;;;;;;;23.70;44.30;102075.84;3570765;40;20048;-64
2022/06/17 07:41:25;;;;;;;6.65;3.88;;;;;;;23.94;43.67;102062.44;3570985;40;20339;-64
2022/06/17 07:43:52;;;;;;;6.25;3.38;;;;;;;23.86;44.60;102071.44;3563753;40;20099;-64
2022/06/17 07:46:18;;;;;;;6.72;3.90;;;;;;;23.91;43.55;102078.34;3566922;40;20708;-64
2022/06/17 07:48:44;;;;;;;6.00;3.45;;;;;;;23.98;44.21;102079.50;3568285;40;20069;-65
2022/06/17 07:51:10;;;;;;;6.55;3.90;;;;;;;24.05;43.91;102064.13;3567847;40;20076;-65
2022/06/17 07:53:41;;;;;;;6.70;3.72;;;;;;;24.20;43.42;102075.44;3569532;40;20417;-65
2022/06/17 07:56:13;;;;;;;5.75;3.55;;;;;;;24.35;44.37;102076.66;3570645;40;20045;-64
2022/06/17 07:58:38;;;;;;;5.85;4.03;;;;;;;24.49;42.58;102078.06;3569916;40;20045;-65
2022/06/17 08:01:04;;;;;;;6.05;3.42;;;;;;;24.67;42.46;102076.16;3566059;40;20056;-65
2022/06/17 08:03:29;;;;;;;4.78;3.35;;;;;;;24.90;40.94;102082.06;3566983;40;20060;-65
2022/06/17 08:05:57;;;;;;;4.72;3.00;;;;;;;25.07;42.08;102071.19;3568863;40;20063;-65
2022/06/17 08:08:24;;;;;;;4.78;3.10;;;;;;;25.35;41.85;102085.72;3572058;40;20143;-65
2022/06/17 08:10:57;;;;;;;5.35;3.30;;;;;;;25.54;41.85;102084.66;3573552;40;20092;-65
2022/06/17 08:13:24;;;;;;;6.75;3.17;;;;;;;25.72;41.74;102088.19;3573237;40;20415;-65
2022/06/17 08:15:54;;;;;;;6.38;3.60;;;;;;;25.72;41.45;102093.69;3575692;40;20126;-65
2022/06/17 08:18:21;;;;;;;5.72;3.10;;;;;;;25.96;39.65;102090.25;3573046;40;20127;-65
2022/06/17 08:20:47;;;;;;;5.65;2.70;;;;;;;26.11;37.53;102088.59;3565360;40;20049;-65
2022/06/17 08:23:13;;;;;;;7.13;3.03;;;;;;;26.23;37.60;102096.53;3567937;40;20065;-66
2022/06/17 08:25:38;;;;;;;5.80;2.78;;;;;;;26.29;37.15;102094.00;3564133;40;20324;-66
2022/06/17 08:28:09;;;;;;;4.15;2.80;;;;;;;26.47;36.88;102099.38;3564100;40;20118;-66
2022/06/17 08:30:46;;;;;;;6.65;2.45;;;;;;;26.68;37.62;102087.91;3566868;40;20052;-65
2022/06/17 08:33:12;;;;;;;4.95;2.53;;;;;;;26.96;36.49;102088.47;3569586;40;20056;-66
2022/06/17 08:35:44;;;;;;;4.82;2.33;;;;;;;27.12;36.59;102078.44;3563765;40;20057;-66
2022/06/17 08:38:25;;;;;;;3.70;2.50;;;;;;;27.30;35.95;102073.63;3568598;40;20056;-63
2022/06/17 08:40:54;;;;;;;4.43;2.47;;;;;;;27.45;35.55;102066.34;3571124;40;20056;-64
2022/06/17 08:43:50;;;;;;;3.83;2.60;;;;;;;27.26;34.09;102055.69;3564938;40;20042;-65
2022/06/17 08:46:56;;;;;;;7.65;3.65;;;;;;;27.05;35.38;102051.56;3569780;40;20384;-64
2022/06/17 08:49:49;;;;;;;10.90;4.88;;;;;;;27.17;36.20;102060.34;3569621;40;20068;-63
2022/06/17 08:52:41;;;;;;;6.55;3.15;;;;;;;27.13;34.62;102071.91;3568538;40;20137;-63
2022/06/17 08:55:24;;;;;;;4.82;2.92;;;;;;;27.13;33.91;102069.13;3568090;40;20060;-63
2022/06/17 08:58:14;;;;;;;5.45;2.63;;;;;;;27.34;35.02;102074.13;3573473;40;20051;-64
2022/06/17 09:01:02;;;;;;;5.55;3.10;;;;;;;27.47;33.86;102057.91;3574051;40;20056;-64
2022/06/17 09:04:38;;;;;;;4.10;3.50;;;;;;;27.86;33.58;102080.09;3571509;40;20124;-64
2022/06/17 09:08:07;;;;;;;5.97;3.17;;;;;;;28.04;33.95;102081.72;3534277;40;20590;-65
2022/06/17 09:11:02;;;;;;;3.97;2.88;;;;;;;28.23;33.08;102075.78;3517929;40;20106;-64
2022/06/17 09:14:04;;;;;;;6.07;3.15;;;;;;;28.45;33.26;102079.66;3560551;40;20049;-64
2022/06/17 09:16:57;;;;;;;5.32;2.95;;;;;;;28.89;32.41;102071.56;3567061;40;20049;-64
2022/06/17 09:19:33;;;;;;;5.00;2.90;;;;;;;29.17;31.42;102072.91;3570993;40;20269;-64
2022/06/17 09:22:40;;;;;;;6.20;2.92;;;;;;;29.09;32.05;102068.31;3570279;40;20334;-64
2022/06/17 09:25:12;;;;;;;3.55;2.70;;;;;;;29.11;31.33;102064.28;3565479;40;20067;-64
2022/06/17 09:27:46;;;;;;;6.03;3.03;;;;;;;29.01;32.13;102076.69;3566744;40;20096;-64
2022/06/17 09:30:22;;;;;;;8.85;3.20;;;;;;;29.07;32.51;102073.16;3572034;40;20065;-64
2022/06/17 09:33:12;;;;;;;6.22;3.08;;;;;;;29.17;30.70;102072.91;3574996;40;20049;-64
2022/06/17 09:35:54;;;;;;;9.02;3.03;;;;;;;29.24;31.10;102080.28;3569911;40;20053;-64
2022/06/17 09:38:46;;;;;;;7.45;2.95;;;;;;;29.31;30.82;102072.94;3570632;40;20351;-64
2022/06/17 09:41:26;;;;;;;5.60;2.65;;;;;;;29.43;30.22;102064.16;3566736;40;20057;-64
2022/06/17 09:44:10;;;;;;;3.80;3.08;;;;;;;29.49;29.24;102060.63;3567070;40;20057;-65
2022/06/17 09:47:01;;;;;;;4.32;2.72;;;;;;;29.50;30.80;102074.31;3573412;40;20311;-64
2022/06/17 09:49:49;;;;;;;3.92;2.60;;;;;;;29.62;30.36;102074.72;3568333;40;20323;-64
2022/06/17 09:52:28;;;;;;;4.53;2.55;;;;;;;29.86;30.43;102072.72;3565767;40;20141;-64
2022/06/17 09:55:11;;;;;;;5.15;2.47;;;;;;;30.04;30.15;102074.03;3568464;40;20063;-64
2022/06/17 09:57:59;;;;;;;5.72;2.60;;;;;;;30.24;29.33;102066.00;3570924;40;20049;-64
2022/06/17 10:00:46;;;;;;;4.85;2.00;;;;;;;30.22;31.00;102057.00;3565132;40;20130;-64
2022/06/17 10:03:31;;;;;;;4.35;2.25;;;;;;;30.42;28.13;102062.81;3570819;40;20380;-63
2022/06/17 10:06:49;;;;;;;5.15;2.40;;;;;;;30.44;29.04;102054.25;3572951;40;20056;-63
2022/06/17 10:09:55;;;;;;;4.22;2.05;;;;;;;30.40;27.35;102056.56;3572913;40;20053;-64
2022/06/17 10:12:48;;;;;;;4.05;2.60;;;;;;;30.53;27.99;102044.75;3573111;40;20131;-65
2022/06/17 10:19:51;;;;;;;2.90;1.75;;;;;;;30.63;28.53;102036.09;3573495;40;20056;-64
2022/06/17 10:22:41;;;;;;;3.53;1.70;;;;;;;30.77;27.72;102035.22;3538539;40;20045;-65
2022/06/17 10:25:40;;;;;;;5.28;1.83;;;;;;;30.75;27.14;102029.81;3570418;40;20052;-65
2022/06/17 10:28:41;;;;;;;2.15;1.70;;;;;;;30.82;26.78;102029.06;3567701;40;20059;-64
2022/06/17 10:31:30;;;;;;;3.25;1.60;;;;;;;30.97;26.66;102019.59;3567409;40;20044;-63
2022/06/17 10:34:03;;;;;;;7.78;1.85;;;;;;;30.68;26.91;102006.69;3567224;40;20127;-64
2022/06/17 10:36:31;;;;;;;2.03;1.67;;;;;;;30.79;26.51;102030.31;3564654;40;20130;-62
2022/06/17 10:39:02;;;;;;;3.53;1.70;;;;;;;30.86;28.24;102024.81;3573735;40;20048;-63
2022/06/17 10:41:30;;;;;;;4.00;1.83;;;;;;;30.92;27.45;102030.44;3568586;40;20052;-63
2022/06/17 10:43:57;;;;;;;2.95;1.70;;;;;;;31.20;28.73;102030.44;3571614;40;20074;-65
2022/06/17 10:46:36;;;;;;;2.78;1.60;;;;;;;31.21;26.37;102032.19;3572944;40;20065;-65
2022/06/17 10:49:42;;;;;;;4.82;1.70;;;;;;;31.23;26.75;102018.06;3570916;40;20118;-64
2022/06/17 10:52:21;;;;;;;4.07;2.08;;;;;;;31.29;26.90;102016.41;3564984;40;20052;-64
2022/06/17 10:54:51;;;;;;;5.00;2.10;;;;;;;31.36;26.88;102020.13;3570782;40;21002;-65
2022/06/17 10:57:37;;;;;;;2.83;1.50;;;;;;;31.44;26.21;102000.50;3574391;40;20057;-65
2022/06/17 11:00:23;;;;;;;1.98;1.60;;;;;;;31.74;26.10;102022.47;3567403;40;20049;-65
2022/06/17 11:02:49;;;;;;;1.60;1.50;;;;;;;31.81;25.90;102017.78;3570436;40;20064;-64
2022/06/17 11:05:34;;;;;;;1.85;1.55;;;;;;;31.86;27.14;102015.25;3572761;40;20068;-63
2022/06/17 11:08:00;;;;;;;3.13;1.65;;;;;;;31.94;25.81;102004.00;3568619;40;20049;-63
2022/06/17 11:10:30;;;;;;;3.00;2.00;;;;;;;32.10;26.45;101973.03;3571449;40;20053;-62
2022/06/17 11:13:07;;;;;;;3.55;1.52;;;;;;;32.36;27.23;101990.84;3568369;40;20093;-65
2022/06/17 11:15:56;;;;;;;4.00;2.42;;;;;;;32.47;26.85;101987.44;3567078;40;20053;-64
2022/06/17 11:18:33;;;;;;;2.83;1.58;;;;;;;32.59;25.74;101994.13;3566126;40;20081;-64
2022/06/17 11:21:05;;;;;;;3.92;1.80;;;;;;;32.78;24.97;101994.34;3569799;40;20061;-64
2022/06/17 11:23:44;;;;;;;1.63;1.50;;;;;;;32.66;24.70;101987.69;3570891;40;20069;-64
2022/06/17 11:26:19;;;;;;;2.63;1.45;;;;;;;32.53;25.67;101983.81;3567492;40;20097;-64
2022/06/17 11:28:50;;;;;;;3.15;1.52;;;;;;;32.71;26.15;101976.78;3569784;40;20089;-64
2022/06/17 11:31:33;;;;;;;3.33;1.60;;;;;;;32.70;25.39;101950.88;3566003;40;20065;-64
2022/06/17 11:34:11;;;;;;;2.05;1.67;;;;;;;33.03;25.42;101964.78;3570452;40;20052;-64
2022/06/17 11:36:57;;;;;;;2.28;1.70;;;;;;;33.19;24.95;101973.78;3568970;40;20052;-63
2022/06/17 11:39:34;;;;;;;1.45;1.27;;;;;;;33.14;23.55;101967.97;3567626;40;20069;-64
2022/06/17 11:42:19;;;;;;;1.63;1.50;;;;;;;33.20;24.06;101964.31;3569762;40;20903;-64
2022/06/17 11:44:55;;;;;;;3.03;1.58;;;;;;;33.42;24.38;101974.13;3568899;40;20053;-64
2022/06/17 11:47:26;;;;;;;2.58;1.70;;;;;;;33.60;23.22;101967.03;3569845;40;20052;-64
2022/06/17 11:50:10;;;;;;;2.15;1.48;;;;;;;33.67;22.74;101956.72;3568708;40;20084;-64
2022/06/17 11:52:37;;;;;;;1.67;1.58;;;;;;;33.95;22.92;101948.84;3568471;40;20053;-66
2022/06/17 11:55:04;;;;;;;1.92;1.42;;;;;;;34.04;23.49;101946.69;3571082;40;20060;-64
2022/06/17 11:57:36;;;;;;;4.97;1.45;;;;;;;34.10;22.30;101929.03;3571820;40;20056;-64
2022/06/17 12:00:46;;;;;;;1.42;1.33;;;;;;;34.02;22.83;101937.66;3567460;40;20302;-64
2022/06/17 12:03:19;;;;;;;5.22;1.58;;;;;;;33.94;22.35;101930.41;3530951;40;20133;-64
2022/06/17 12:05:59;;;;;;;1.25;1.15;;;;;;;33.84;22.06;101930.03;3534033;40;20056;-64
2022/06/17 12:08:41;;;;;;;2.05;1.50;;;;;;;33.82;21.86;101926.59;3544050;40;20104;-63
2022/06/17 12:11:29;;;;;;;2.25;2.05;;;;;;;33.69;23.31;101927.53;3570289;40;20064;-63
2022/06/17 12:14:05;;;;;;;5.75;1.85;;;;;;;33.54;22.60;101920.50;3571014;40;20049;-64